Time;durP1;ratioP1;P1;durP2;ratioP2;P2;SDS_P1;SDS_P2;PMS_P1;PMS_P2;Temp;Humidity;BMP_temperature;BMP_pressure;BME280_temperature;BME280_humidity;BME280_pressure;Samples;Min_cycle;Max_cycle;Signal;HPM_P1;HPM_P2
2022/03/16 00:01:12;;;;;;;2.25;2.05;;;;;;;24.02;10.33;102079.38;5074142;28;20029;-69
2022/03/16 00:03:37;;;;;;;2.03;1.90;;;;;;;24.00;10.43;102087.78;5073695;28;20085;-70
2022/03/16 00:06:02;;;;;;;2.10;1.95;;;;;;;24.00;10.62;102088.63;5073482;28;20056;-69
2022/03/16 00:08:29;;;;;;;2.40;2.20;;;;;;;24.01;10.32;102084.00;5073707;28;20478;-70
2022/03/16 00:10:56;;;;;;;2.00;1.90;;;;;;;23.94;10.34;102078.66;5073999;28;20096;-70
2022/03/16 00:13:21;;;;;;;2.13;2.03;;;;;;;23.99;10.53;102086.97;5074837;28;20105;-70
2022/03/16 00:15:46;;;;;;;2.03;1.90;;;;;;;23.99;10.39;102094.31;5073903;28;20033;-70
2022/03/16 00:18:13;;;;;;;2.20;2.00;;;;;;;23.95;10.46;102090.41;5073615;28;20463;-70
2022/03/16 00:20:38;;;;;;;2.05;1.95;;;;;;;23.94;10.16;102094.19;5073646;28;20029;-69
2022/03/16 00:23:04;;;;;;;2.15;2.05;;;;;;;23.93;10.37;102092.53;5073637;28;20035;-69
2022/03/16 00:25:30;;;;;;;2.30;2.10;;;;;;;23.96;10.17;102103.81;5073589;28;20052;-70
2022/03/16 00:27:55;;;;;;;1.88;1.77;;;;;;;23.98;10.10;102098.13;5073989;28;20035;-70
2022/03/16 00:30:21;;;;;;;2.50;2.30;;;;;;;23.97;10.04;102099.19;5073975;28;20025;-69
2022/03/16 00:32:46;;;;;;;1.98;1.80;;;;;;;23.96;10.35;102101.09;5074087;28;20336;-70
2022/03/16 00:35:11;;;;;;;2.22;2.03;;;;;;;23.98;10.17;102096.22;5073558;28;20036;-70
2022/03/16 00:37:37;;;;;;;2.10;2.00;;;;;;;23.95;9.95;102093.94;5073309;28;20025;-70
2022/03/16 00:40:02;;;;;;;2.22;2.10;;;;;;;23.97;10.01;102093.72;5073494;28;20033;-70
2022/03/16 00:42:28;;;;;;;2.20;2.00;;;;;;;23.96;10.28;102092.91;5073249;28;20405;-69
2022/03/16 00:44:54;;;;;;;2.10;1.90;;;;;;;23.95;9.96;102093.13;5073387;28;20089;-69
2022/03/16 00:47:19;;;;;;;2.40;2.20;;;;;;;23.93;10.20;102087.91;5073003;28;20028;-69
2022/03/16 00:49:45;;;;;;;2.20;2.00;;;;;;;23.94;10.02;102092.31;5073313;28;20387;-70
2022/03/16 00:52:10;;;;;;;2.22;2.03;;;;;;;23.94;10.15;102091.47;5072982;28;20414;-69
2022/03/16 00:54:35;;;;;;;2.20;2.00;;;;;;;23.94;10.24;102094.19;5073257;28;20032;-69
2022/03/16 00:57:01;;;;;;;2.35;2.15;;;;;;;23.94;10.11;102099.66;5073239;28;20025;-69
2022/03/16 00:59:26;;;;;;;2.30;2.10;;;;;;;23.92;9.88;102086.25;5067899;28;20435;-69
2022/03/16 01:01:52;;;;;;;2.00;1.90;;;;;;;23.94;10.08;102086.84;5052997;28;20464;-70
2022/03/16 01:04:17;;;;;;;2.00;1.90;;;;;;;23.87;9.89;102075.22;5052864;28;20369;-70
2022/03/16 01:06:43;;;;;;;2.00;1.90;;;;;;;23.91;10.02;102084.59;5052459;28;20045;-70
2022/03/16 01:09:08;;;;;;;2.20;2.00;;;;;;;23.95;10.08;102079.47;5052902;28;20017;-69
2022/03/16 01:11:34;;;;;;;2.10;2.00;;;;;;;23.93;9.90;102082.44;5053079;28;20090;-69
2022/03/16 01:14:00;;;;;;;2.20;2.00;;;;;;;23.92;9.92;102082.69;5053124;28;20032;-70
2022/03/16 01:16:25;;;;;;;2.40;2.20;;;;;;;23.92;9.65;102082.69;5053186;28;20086;-69
2022/03/16 01:18:50;;;;;;;2.38;2.17;;;;;;;23.92;9.50;102085.41;5052864;28;20021;-70
2022/03/16 01:21:16;;;;;;;2.35;2.15;;;;;;;23.91;9.54;102084.59;5053167;28;20028;-70
2022/03/16 01:23:42;;;;;;;2.00;1.90;;;;;;;23.90;9.72;102082.91;5053046;28;20033;-69
2022/03/16 01:26:07;;;;;;;2.40;2.20;;;;;;;23.87;9.61;102088.00;5052873;28;20029;-69
2022/03/16 01:28:33;;;;;;;2.38;2.17;;;;;;;23.91;9.58;102094.69;5052665;28;20475;-70
2022/03/16 01:31:00;;;;;;;2.30;2.10;;;;;;;23.90;9.44;102095.75;5052657;28;20029;-69
2022/03/16 01:33:28;;;;;;;2.03;1.90;;;;;;;23.90;9.38;102103.94;5052677;28;20490;-69
2022/03/16 01:35:53;;;;;;;2.10;1.90;;;;;;;23.87;9.42;102093.47;5052927;28;20065;-69
2022/03/16 01:38:19;;;;;;;2.28;2.10;;;;;;;23.90;9.42;102101.19;5052844;28;20490;-70
2022/03/16 01:40:45;;;;;;;2.15;2.05;;;;;;;23.90;9.61;102109.38;5052589;28;20023;-70
2022/03/16 01:43:10;;;;;;;2.20;2.00;;;;;;;23.88;9.57;102103.34;5052803;28;20031;-70
2022/03/16 01:45:36;;;;;;;2.00;1.90;;;;;;;23.88;9.54;102106.06;5053038;28;20029;-70
2022/03/16 01:48:01;;;;;;;2.10;1.90;;;;;;;23.88;9.46;102108.78;5052541;28;20387;-70
2022/03/16 01:50:26;;;;;;;2.00;1.90;;;;;;;23.91;9.28;102116.53;5052803;28;20055;-69
2022/03/16 01:52:52;;;;;;;2.20;2.08;;;;;;;23.88;9.56;102106.06;5052800;28;20025;-69
2022/03/16 01:55:17;;;;;;;2.05;1.85;;;;;;;23.90;9.39;102112.13;5051385;28;20357;-70
2022/03/16 01:57:47;;;;;;;2.10;2.00;;;;;;;23.89;9.54;102116.75;5052657;28;20476;-70
2022/03/16 02:00:13;;;;;;;2.00;1.90;;;;;;;23.85;9.58;102112.81;5061585;28;20032;-70
2022/03/16 02:02:38;;;;;;;2.17;2.08;;;;;;;23.86;9.61;102105.47;5072946;28;20119;-70
2022/03/16 02:05:04;;;;;;;2.08;1.98;;;;;;;23.87;9.43;102109.84;5072201;28;20179;-70
2022/03/16 02:07:30;;;;;;;2.30;2.10;;;;;;;23.86;9.42;102109.03;5072606;28;20026;-70
2022/03/16 02:09:55;;;;;;;2.30;2.10;;;;;;;23.84;9.70;102107.63;5072468;28;20471;-69
2022/03/16 02:12:21;;;;;;;2.20;2.00;;;;;;;23.84;9.44;102116.63;5072524;28;20513;-69
2022/03/16 02:14:46;;;;;;;2.35;2.15;;;;;;;23.83;9.76;102109.50;5075733;28;20017;-69
2022/03/16 02:17:11;;;;;;;2.30;2.10;;;;;;;23.79;9.24;102111.84;5076206;28;20025;-69
2022/03/16 02:19:37;;;;;;;2.05;1.95;;;;;;;23.87;9.49;102115.31;5076117;28;20024;-71
2022/03/16 02:22:03;;;;;;;1.88;1.77;;;;;;;23.84;9.40;102113.91;5076094;28;20028;-70
2022/03/16 02:24:29;;;;;;;2.30;2.10;;;;;;;23.84;9.64;102121.28;5075657;28;20107;-69
2022/03/16 02:26:58;;;;;;;2.10;2.00;;;;;;;23.84;9.56;102126.72;5075893;28;20028;-70
2022/03/16 02:29:23;;;;;;;2.10;2.00;;;;;;;23.84;9.51;102121.28;5075914;28;20103;-70
2022/03/16 02:31:48;;;;;;;2.17;1.98;;;;;;;23.85;9.43;102115.53;5075574;28;20486;-69
2022/03/16 02:34:14;;;;;;;2.33;2.13;;;;;;;23.77;9.32;102115.88;5075762;28;20025;-69
2022/03/16 02:36:39;;;;;;;2.08;1.90;;;;;;;23.83;9.29;102122.31;5075748;28;20035;-68
2022/03/16 02:39:05;;;;;;;2.33;2.17;;;;;;;23.84;9.25;102118.53;5075795;28;20028;-69
2022/03/16 02:41:30;;;;;;;2.50;2.30;;;;;;;23.84;9.19;102124.81;5075755;28;20382;-70
2022/03/16 02:43:55;;;;;;;2.20;2.08;;;;;;;23.84;9.16;102118.53;5075613;28;20489;-70
2022/03/16 02:46:22;;;;;;;2.28;2.17;;;;;;;23.83;8.97;102108.66;5075522;28;20350;-70
2022/03/16 02:48:47;;;;;;;1.90;1.80;;;;;;;23.78;9.12;102107.47;5075571;28;20108;-69
2022/03/16 02:51:13;;;;;;;2.13;1.95;;;;;;;23.80;9.11;102109.94;5075246;28;20113;-70
2022/03/16 02:53:39;;;;;;;2.15;1.95;;;;;;;23.80;8.91;102113.50;5075489;28;20021;-70
2022/03/16 02:56:04;;;;;;;2.05;1.95;;;;;;;23.82;8.88;102113.31;5075128;28;20048;-69
2022/03/16 02:58:30;;;;;;;2.40;2.20;;;;;;;23.82;8.98;102116.03;5075122;28;20028;-70
2022/03/16 03:00:55;;;;;;;2.30;1.83;;;;;;;23.83;8.77;102116.88;5059346;28;20033;-70
2022/03/16 03:03:22;;;;;;;2.15;2.05;;;;;;;23.83;9.04;102125.06;5055334;28;20021;-69
2022/03/16 03:05:47;;;;;;;2.30;2.10;;;;;;;23.85;9.00;102128.38;5055004;28;20045;-70
2022/03/16 03:08:12;;;;;;;2.17;2.00;;;;;;;23.85;9.05;102125.66;5055377;28;20032;-70
2022/03/16 03:10:38;;;;;;;2.05;1.95;;;;;;;23.84;8.94;102133.00;5055198;28;20029;-69
2022/03/16 03:13:03;;;;;;;2.50;2.30;;;;;;;23.83;8.78;102130.50;5055249;28;20029;-69
2022/03/16 03:15:29;;;;;;;1.85;1.75;;;;;;;23.83;8.77;102136.78;5055222;28;20461;-69
2022/03/16 03:17:54;;;;;;;2.25;2.05;;;;;;;23.81;8.94;102131.56;5055407;28;20074;-69
2022/03/16 03:20:19;;;;;;;2.25;2.05;;;;;;;23.80;8.70;102131.75;5054992;28;20039;-70
2022/03/16 03:22:45;;;;;;;2.30;2.10;;;;;;;23.80;8.75;102140.81;5054814;28;20063;-69
2022/03/16 03:25:11;;;;;;;2.03;1.92;;;;;;;23.81;8.73;102138.94;5055099;28;20029;-69
2022/03/16 03:27:37;;;;;;;2.45;2.25;;;;;;;23.75;8.68;102140.69;5055190;28;20041;-69
2022/03/16 03:30:03;;;;;;;2.33;2.15;;;;;;;23.79;8.90;102144.59;5055565;28;20025;-69
2022/03/16 03:32:29;;;;;;;2.30;2.10;;;;;;;23.78;8.92;102148.41;5055511;28;20025;-69
2022/03/16 03:34:55;;;;;;;2.10;2.00;;;;;;;23.79;8.79;102141.03;5054845;28;20071;-70
2022/03/16 03:37:21;;;;;;;2.38;2.20;;;;;;;23.79;8.79;102149.22;5055574;28;20032;-70
2022/03/16 03:39:47;;;;;;;2.25;2.15;;;;;;;23.77;8.81;102144.00;5054726;28;20028;-70
2022/03/16 03:42:12;;;;;;;1.95;1.85;;;;;;;23.75;8.61;102151.59;5054340;28;20036;-69
2022/03/16 03:44:38;;;;;;;2.08;1.98;;;;;;;23.77;8.54;102154.91;5054611;28;20025;-70
2022/03/16 03:47:08;;;;;;;2.50;2.30;;;;;;;23.78;8.74;102155.75;5054416;28;20025;-70
2022/03/16 03:49:34;;;;;;;2.05;1.95;;;;;;;23.83;8.51;102157.81;5054485;28;20025;-70
2022/03/16 03:51:59;;;;;;;2.10;2.00;;;;;;;23.80;8.59;102162.66;5054365;28;20029;-70
2022/03/16 03:54:25;;;;;;;2.40;2.20;;;;;;;23.77;8.67;102160.38;5053945;28;20055;-70
2022/03/16 03:56:51;;;;;;;2.05;1.95;;;;;;;23.77;8.57;102160.38;5054277;28;20112;-69
2022/03/16 03:59:16;;;;;;;2.28;2.08;;;;;;;23.78;8.66;102170.25;5055037;28;20127;-70
2022/03/16 04:01:41;;;;;;;2.08;1.98;;;;;;;23.80;8.73;102169.97;5074170;28;20020;-70
2022/03/16 04:04:07;;;;;;;1.90;1.80;;;;;;;23.78;8.33;102172.97;5073761;28;20525;-69
2022/03/16 04:06:33;;;;;;;2.28;2.08;;;;;;;23.78;8.73;102174.84;5073541;28;20112;-70
2022/03/16 04:08:58;;;;;;;2.35;2.15;;;;;;;23.76;8.52;102179.72;5072633;28;20032;-68
2022/03/16 04:11:23;;;;;;;2.50;2.30;;;;;;;23.78;8.53;102178.44;5073525;28;20371;-69
2022/03/16 04:13:49;;;;;;;2.03;1.92;;;;;;;23.81;8.68;102180.72;5073844;28;20130;-69
2022/03/16 04:16:14;;;;;;;2.78;1.98;;;;;;;23.85;8.78;102185.72;5073897;28;20028;-69
2022/03/16 04:18:40;;;;;;;2.20;2.00;;;;;;;23.88;8.53;102183.34;5073835;28;20021;-69
2022/03/16 04:21:05;;;;;;;2.30;2.10;;;;;;;23.90;8.58;102188.56;5073462;28;20476;-69
2022/03/16 04:23:30;;;;;;;2.20;2.00;;;;;;;23.87;8.45;102175.38;5073756;28;20032;-69
2022/03/16 04:25:56;;;;;;;2.00;1.90;;;;;;;23.98;8.64;102183.59;5073700;28;20024;-69
2022/03/16 04:28:21;;;;;;;2.10;2.00;;;;;;;24.03;8.74;102191.09;5073786;28;20033;-68
2022/03/16 04:30:47;;;;;;;2.00;1.90;;;;;;;24.08;8.57;102190.41;5073662;28;20525;-69
2022/03/16 04:33:12;;;;;;;2.00;1.90;;;;;;;24.09;8.68;102194.78;5073665;28;20520;-69
2022/03/16 04:35:37;;;;;;;2.33;2.13;;;;;;;24.12;8.65;102195.16;5072904;28;20379;-68
2022/03/16 04:38:03;;;;;;;2.50;2.30;;;;;;;24.15;8.64;102204.78;5073408;28;20165;-69
2022/03/16 04:40:28;;;;;;;2.13;2.00;;;;;;;24.16;8.62;102199.09;5073455;28;20027;-70
2022/03/16 04:42:54;;;;;;;2.08;1.98;;;;;;;24.19;8.27;102198.59;5072810;28;20048;-70
2022/03/16 04:45:19;;;;;;;2.00;1.90;;;;;;;24.19;8.33;102195.03;5073090;28;20024;-70
2022/03/16 04:47:44;;;;;;;2.33;2.13;;;;;;;24.25;8.27;102193.25;5072017;28;20025;-70
2022/03/16 04:50:10;;;;;;;2.35;2.15;;;;;;;24.29;8.30;102200.75;5073336;28;20039;-69
2022/03/16 04:52:45;;;;;;;2.33;2.13;;;;;;;24.32;8.42;102204.94;5073271;28;20032;-69
2022/03/16 04:55:11;;;;;;;2.40;2.20;;;;;;;24.34;8.55;102211.00;5073729;28;20066;-70
2022/03/16 04:57:36;;;;;;;2.08;1.95;;;;;;;24.28;8.26;102198.25;5073218;28;20455;-69
2022/03/16 05:00:03;;;;;;;2.35;2.15;;;;;;;24.42;8.50;102204.34;5066165;28;20364;-70
2022/03/16 05:02:28;;;;;;;2.20;2.00;;;;;;;24.42;8.25;102218.00;5052199;28;20051;-69
2022/03/16 05:04:53;;;;;;;2.10;2.00;;;;;;;24.47;8.26;102221.69;5052143;28;20391;-69
2022/03/16 05:07:19;;;;;;;2.38;2.17;;;;;;;24.48;8.54;102204.22;5052911;28;20021;-69
2022/03/16 05:09:44;;;;;;;2.47;2.28;;;;;;;24.49;8.15;102211.38;5052175;28;20029;-69
2022/03/16 05:12:10;;;;;;;1.98;1.88;;;;;;;24.47;8.35;102208.00;5052792;28;20426;-70
2022/03/16 05:14:35;;;;;;;1.98;1.88;;;;;;;24.55;8.36;102215.91;5052956;28;20028;-69
2022/03/16 05:17:00;;;;;;;2.60;2.40;;;;;;;24.58;8.16;102214.59;5052449;28;20109;-69
2022/03/16 05:19:26;;;;;;;2.30;2.10;;;;;;;24.59;8.49;102212.69;5052563;28;20479;-69
2022/03/16 05:21:51;;;;;;;2.25;2.10;;;;;;;24.57;8.56;102215.66;5052847;28;20017;-70
2022/03/16 05:24:20;;;;;;;3.45;2.22;;;;;;;24.57;8.19;102210.19;5053339;28;20028;-69
2022/03/16 05:26:45;;;;;;;2.55;2.30;;;;;;;24.60;8.44;102217.94;5052806;28;20040;-68
2022/03/16 05:29:10;;;;;;;1.90;1.80;;;;;;;24.65;8.00;102222.69;5052809;28;20375;-68
2022/03/16 05:31:36;;;;;;;1.92;1.83;;;;;;;24.64;8.14;102221.00;5052556;28;20021;-69
2022/03/16 05:34:02;;;;;;;1.90;1.80;;;;;;;24.63;8.43;102227.53;5052661;28;20033;-69
2022/03/16 05:36:27;;;;;;;2.25;2.05;;;;;;;24.66;8.36;102221.59;5052615;28;20029;-68
2022/03/16 05:38:52;;;;;;;2.33;2.13;;;;;;;24.68;8.15;102224.94;5052684;28;20037;-69
2022/03/16 05:41:18;;;;;;;1.95;1.85;;;;;;;24.71;8.31;102224.44;5052492;28;20427;-69
2022/03/16 05:43:43;;;;;;;2.40;2.20;;;;;;;24.60;8.42;102228.03;5052783;28;20040;-69
2022/03/16 05:46:09;;;;;;;2.38;2.17;;;;;;;24.63;8.11;102219.34;5051110;28;20029;-70
2022/03/16 05:48:34;;;;;;;2.45;2.25;;;;;;;24.77;8.09;102237.19;5053839;28;20040;-69
2022/03/16 05:51:00;;;;;;;2.05;1.95;;;;;;;24.78;8.30;102230.63;5056541;28;20091;-71
2022/03/16 05:53:25;;;;;;;2.13;2.03;;;;;;;24.79;8.15;102226.84;5056297;28;20025;-70
2022/03/16 05:55:51;;;;;;;2.38;2.17;;;;;;;24.77;8.43;102233.59;5055969;28;20472;-70
2022/03/16 05:58:16;;;;;;;2.10;1.90;;;;;;;24.74;8.49;102238.47;5056132;28;20124;-70
2022/03/16 06:00:42;;;;;;;2.63;2.20;;;;;;;24.85;8.23;102239.56;5066986;28;20029;-69
2022/03/16 06:03:07;;;;;;;2.20;2.03;;;;;;;24.87;8.52;102242.03;5076187;28;20036;-70
2022/03/16 06:05:33;;;;;;;2.40;2.20;;;;;;;24.88;8.44;102230.88;5075378;28;20560;-69
2022/03/16 06:07:59;;;;;;;2.33;2.13;;;;;;;24.91;8.50;102240.50;5076172;28;20528;-70
2022/03/16 06:10:25;;;;;;;1.92;1.80;;;;;;;24.92;8.37;102240.28;5075771;28;20024;-69
2022/03/16 06:13:00;;;;;;;2.60;2.40;;;;;;;24.97;8.83;102244.19;5075749;28;20051;-69
2022/03/16 06:15:27;;;;;;;2.50;2.30;;;;;;;25.01;8.91;102250.81;5076107;28;20120;-70
2022/03/16 06:17:56;;;;;;;2.40;2.20;;;;;;;25.04;8.79;102256.66;5075586;28;20029;-69
2022/03/16 06:20:21;;;;;;;3.00;2.40;;;;;;;25.07;9.24;102252.63;5075339;28;20431;-69
2022/03/16 06:22:47;;;;;;;2.47;2.28;;;;;;;25.12;9.02;102256.28;5075300;28;20025;-70
2022/03/16 06:25:12;;;;;;;3.45;2.35;;;;;;;25.11;9.14;102262.84;5076367;28;20086;-69
2022/03/16 06:27:38;;;;;;;15.20;7.25;;;;;;;25.10;9.06;102261.16;5075711;28;20439;-70
2022/03/16 06:30:04;;;;;;;5.78;3.20;;;;;;;25.15;8.79;102263.19;5075650;28;20078;-70
2022/03/16 06:32:29;;;;;;;4.50;2.90;;;;;;;25.12;9.51;102264.50;5075585;28;20024;-70
2022/03/16 06:34:55;;;;;;;4.72;3.40;;;;;;;25.22;9.15;102261.16;5075423;28;20036;-69
2022/03/16 06:37:20;;;;;;;4.45;3.08;;;;;;;25.12;9.21;102269.97;5075238;28;20025;-69
2022/03/16 06:39:46;;;;;;;5.85;3.20;;;;;;;25.20;9.81;102266.03;5075514;28;20028;-70
2022/03/16 06:42:11;;;;;;;8.13;3.90;;;;;;;25.35;9.50;102267.47;5075651;28;20025;-70
2022/03/16 06:44:36;;;;;;;6.93;3.47;;;;;;;25.22;9.54;102274.00;5075374;28;20533;-69
2022/03/16 06:47:02;;;;;;;3.90;3.05;;;;;;;25.39;9.83;102268.63;5075318;28;20029;-70
2022/03/16 06:49:27;;;;;;;5.35;2.95;;;;;;;25.38;9.58;102272.47;5073828;28;20024;-69
2022/03/16 06:51:53;;;;;;;6.22;3.30;;;;;;;25.28;9.92;102271.19;5075085;28;20066;-70
2022/03/16 06:54:18;;;;;;;3.17;2.78;;;;;;;25.41;10.04;102271.97;5075132;28;20024;-69
2022/03/16 06:56:44;;;;;;;5.57;2.78;;;;;;;25.46;9.98;102280.31;5075092;28;20021;-69
2022/03/16 06:59:09;;;;;;;3.78;2.85;;;;;;;25.39;10.25;102279.56;5074910;28;20024;-70
2022/03/16 07:01:34;;;;;;;7.18;2.80;;;;;;;25.45;10.09;102267.69;5056812;28;20029;-70
2022/03/16 07:04:00;;;;;;;5.35;2.83;;;;;;;25.53;10.00;102286.47;5053256;28;20051;-68
2022/03/16 07:06:25;;;;;;;3.78;2.70;;;;;;;25.45;10.14;102278.63;5054513;28;20045;-68
2022/03/16 07:08:51;;;;;;;3.55;3.00;;;;;;;25.54;10.28;102279.91;5054755;28;20029;-68
2022/03/16 07:11:16;;;;;;;3.35;2.88;;;;;;;25.55;10.19;102283.50;5055004;28;20505;-70
2022/03/16 07:14:30;;;;;;;5.38;2.70;;;;;;;25.57;10.26;102273.94;5055050;28;20320;-71
2022/03/16 07:16:29;;;;;;;3.13;2.50;;;;;;;25.68;10.31;102284.03;5055949;28;20114;-71
2022/03/16 07:18:55;;;;;;;2.78;2.42;;;;;;;25.67;10.46;102274.16;5055548;28;20159;-71
2022/03/16 07:21:20;;;;;;;2.95;2.60;;;;;;;25.70;10.69;102280.22;5054923;28;20029;-70
2022/03/16 07:23:46;;;;;;;3.95;2.83;;;;;;;25.70;10.49;102282.94;5056017;28;20033;-71
2022/03/16 07:26:14;;;;;;;3.08;2.78;;;;;;;25.71;10.76;102281.88;5056370;28;20108;-70
2022/03/16 07:28:39;;;;;;;2.85;2.47;;;;;;;25.76;10.56;102287.47;5058320;28;20041;-70
2022/03/16 07:31:04;;;;;;;2.50;2.30;;;;;;;25.75;10.87;102288.53;5059158;28;20025;-73
2022/03/16 07:33:30;;;;;;;2.60;2.10;;;;;;;25.79;10.93;102292.47;5057777;28;20055;-71
2022/03/16 07:35:56;;;;;;;2.63;2.42;;;;;;;25.79;11.04;102295.19;5056753;28;20468;-69
2022/03/16 07:38:21;;;;;;;2.25;2.05;;;;;;;25.82;11.01;102300.19;5056896;28;20435;-71
2022/03/16 07:40:47;;;;;;;2.60;2.40;;;;;;;25.76;10.91;102290.19;5058374;28;20100;-70
2022/03/16 07:43:14;;;;;;;2.53;2.33;;;;;;;25.79;11.10;102296.00;5057837;28;20029;-71
2022/03/16 07:45:39;;;;;;;2.95;2.35;;;;;;;25.80;10.89;102302.31;5057184;28;20047;-71
2022/03/16 07:48:05;;;;;;;2.90;2.70;;;;;;;25.91;11.20;102309.66;5057515;28;20033;-71
2022/03/16 07:50:30;;;;;;;3.03;2.40;;;;;;;25.92;11.10;102303.09;5056283;28;20033;-71
2022/03/16 07:52:56;;;;;;;5.85;2.60;;;;;;;25.95;11.31;102310.88;5056280;28;20046;-70
2022/03/16 07:55:21;;;;;;;2.67;2.45;;;;;;;25.78;11.34;102304.47;5057169;28;20490;-72
2022/03/16 07:57:47;;;;;;;2.75;2.28;;;;;;;25.90;10.93;102312.66;5057123;28;20028;-72
2022/03/16 08:00:13;;;;;;;3.03;2.72;;;;;;;25.97;11.07;102313.38;5060907;28;20028;-72
2022/03/16 08:02:39;;;;;;;4.60;3.20;;;;;;;25.97;11.20;102314.19;5075517;28;20082;-72
2022/03/16 08:05:05;;;;;;;6.10;3.70;;;;;;;25.87;11.17;102313.97;5074268;28;20024;-73
2022/03/16 08:07:30;;;;;;;4.88;3.20;;;;;;;25.93;11.23;102318.47;5075293;28;20031;-72
2022/03/16 08:09:56;;;;;;;4.68;3.10;;;;;;;25.95;11.18;102305.38;5075042;28;20447;-71
2022/03/16 08:12:22;;;;;;;5.22;3.17;;;;;;;26.12;11.06;102321.06;5074156;28;20029;-72
2022/03/16 08:14:47;;;;;;;4.50;3.13;;;;;;;26.09;11.12;102325.09;5074663;28;20042;-72
2022/03/16 08:17:13;;;;;;;4.78;3.35;;;;;;;25.97;11.04;102321.59;5073903;28;20025;-72
2022/03/16 08:19:38;;;;;;;4.00;2.90;;;;;;;25.91;11.20;102320.63;5073692;28;20024;-72
2022/03/16 08:22:04;;;;;;;4.18;3.10;;;;;;;25.96;11.49;102328.97;5072351;28;20073;-71
2022/03/16 08:24:29;;;;;;;3.85;3.33;;;;;;;26.11;11.36;102335.81;5073751;28;20127;-71
2022/03/16 08:26:54;;;;;;;3.70;3.15;;;;;;;26.05;11.43;102327.50;5073375;28;20521;-72
2022/03/16 08:29:20;;;;;;;3.53;2.92;;;;;;;26.10;11.49;102339.66;5072163;28;20024;-71
2022/03/16 08:31:45;;;;;;;3.28;2.70;;;;;;;26.11;11.69;102341.28;5073498;28;20021;-72
2022/03/16 08:34:11;;;;;;;4.28;3.05;;;;;;;26.05;11.66;102332.97;5073728;28;20521;-72
2022/03/16 08:36:38;;;;;;;4.43;2.83;;;;;;;26.17;11.43;102345.81;5072094;28;20463;-72
2022/03/16 08:39:04;;;;;;;4.03;2.92;;;;;;;26.16;11.47;102338.66;5073553;28;20032;-72
2022/03/16 08:41:32;;;;;;;3.63;2.50;;;;;;;26.22;11.75;102348.66;5073346;28;20423;-72
2022/03/16 08:43:58;;;;;;;3.55;2.97;;;;;;;26.14;11.48;102344.38;5072505;28;20040;-71
2022/03/16 08:46:26;;;;;;;76.35;29.25;;;;;;;26.28;11.66;102358.59;5073708;28;20032;-70
2022/03/16 08:48:51;;;;;;;15.82;7.72;;;;;;;26.27;11.80;102358.84;5073303;28;20033;-71
2022/03/16 08:51:17;;;;;;;6.70;4.60;;;;;;;26.28;11.72;102360.53;5073432;28;20036;-70
2022/03/16 08:53:42;;;;;;;5.25;3.42;;;;;;;26.31;11.71;102358.13;5074050;28;20134;-69
2022/03/16 08:56:09;;;;;;;5.53;3.15;;;;;;;26.29;11.58;102357.53;5074854;28;20070;-71
2022/03/16 08:58:35;;;;;;;4.70;3.45;;;;;;;26.24;11.68;102355.53;5072796;28;20038;-70
2022/03/16 09:01:00;;;;;;;3.85;3.00;;;;;;;26.27;11.44;102364.31;5061750;28;20391;-71
2022/03/16 09:03:26;;;;;;;3.05;2.75;;;;;;;26.34;11.56;102363.13;5052636;28;20036;-71
2022/03/16 09:05:52;;;;;;;3.67;3.10;;;;;;;26.34;11.46;102365.03;5052822;28;20057;-70
2022/03/16 09:08:18;;;;;;;3.15;2.85;;;;;;;26.29;11.18;102360.28;5053654;28;20394;-71
2022/03/16 09:10:44;;;;;;;3.92;3.40;;;;;;;26.30;11.27;102367.44;5035479;28;20033;-71
2022/03/16 09:13:10;;;;;;;3.63;3.28;;;;;;;26.22;11.71;102368.66;5052927;28;20431;-71
2022/03/16 09:15:35;;;;;;;4.43;3.53;;;;;;;26.30;11.40;102369.31;5067690;28;20071;-71
2022/03/16 09:18:01;;;;;;;3.67;3.25;;;;;;;26.29;11.33;102370.41;5052820;28;20072;-71
2022/03/16 09:20:27;;;;;;;3.25;2.95;;;;;;;26.30;11.26;102372.91;5053187;28;20025;-71
2022/03/16 09:22:53;;;;;;;3.88;3.40;;;;;;;26.34;11.25;102368.59;5055229;28;20051;-71
2022/03/16 09:25:20;;;;;;;3.72;3.20;;;;;;;26.38;11.13;102367.03;5057301;28;20048;-71
2022/03/16 09:27:45;;;;;;;3.78;3.15;;;;;;;26.41;11.16;102373.94;5057416;28;20132;-71
2022/03/16 09:30:11;;;;;;;4.88;2.83;;;;;;;26.37;11.08;102373.59;5057712;28;20410;-75
2022/03/16 09:32:37;;;;;;;3.63;2.85;;;;;;;26.36;11.27;102377.41;5058322;28;20029;-74
2022/03/16 09:35:04;;;;;;;3.25;2.95;;;;;;;26.40;10.88;102375.81;5057480;28;20103;-75
2022/03/16 09:37:29;;;;;;;3.25;2.95;;;;;;;26.47;10.87;102383.06;5057433;28;20466;-76
2022/03/16 09:39:55;;;;;;;3.33;3.03;;;;;;;26.35;10.79;102386.69;5058547;28;20036;-75
2022/03/16 09:42:20;;;;;;;3.30;3.00;;;;;;;26.42;11.01;102386.53;5058182;28;20475;-76
2022/03/16 09:44:45;;;;;;;3.15;2.85;;;;;;;26.45;10.62;102396.19;5059036;28;20025;-76
2022/03/16 09:47:11;;;;;;;3.20;2.90;;;;;;;26.45;10.73;102397.03;5060310;28;20029;-76
2022/03/16 09:49:38;;;;;;;3.40;3.10;;;;;;;26.50;10.58;102404.53;5059076;28;20025;-75
2022/03/16 09:52:04;;;;;;;3.15;2.90;;;;;;;26.51;10.50;102400.69;5060146;28;20088;-76
2022/03/16 09:54:30;;;;;;;3.05;2.75;;;;;;;26.53;10.42;102398.56;5059255;28;20029;-76
2022/03/16 09:56:56;;;;;;;3.70;3.00;;;;;;;26.52;10.20;102396.88;5060508;28;20348;-75
2022/03/16 09:59:21;;;;;;;3.80;2.83;;;;;;;26.35;10.42;102370.25;5056981;28;20028;-75
2022/03/16 10:01:46;;;;;;;3.10;2.85;;;;;;;26.55;10.07;102399.94;5076008;28;20031;-75
2022/03/16 10:04:13;;;;;;;3.45;2.75;;;;;;;26.28;10.26;102371.47;5080139;28;20391;-75
2022/03/16 10:06:38;;;;;;;2.80;2.60;;;;;;;26.54;10.10;102408.41;5078052;28;20060;-75
2022/03/16 10:15:24;;;;;;;3.10;2.80;;;;;;;26.65;9.84;102407.56;5077244;28;20078;-76
2022/03/16 10:17:56;;;;;;;2.95;2.75;;;;;;;26.63;9.65;102411.63;5057960;28;20084;-76
2022/03/16 10:20:26;;;;;;;3.10;2.80;;;;;;;26.61;9.74;102411.84;5055629;28;20499;-73
2022/03/16 10:22:53;;;;;;;2.58;2.38;;;;;;;26.44;9.74;102409.09;5054817;28;20037;-73
2022/03/16 10:25:18;;;;;;;2.70;2.50;;;;;;;26.57;9.79;102408.75;5054806;28;20036;-73
2022/03/16 10:27:44;;;;;;;2.63;2.38;;;;;;;26.65;9.64;102415.81;5037341;28;20045;-72
2022/03/16 10:30:09;;;;;;;2.95;2.70;;;;;;;26.65;9.51;102417.69;5054369;28;20025;-73
2022/03/16 10:32:35;;;;;;;6.60;2.75;;;;;;;26.61;9.49;102414.56;5054664;28;20025;-73
2022/03/16 10:35:10;;;;;;;4.22;2.83;;;;;;;26.66;9.18;102420.19;5052694;28;20497;-74
2022/03/16 10:37:36;;;;;;;2.60;2.40;;;;;;;26.58;9.31;102412.34;5053383;28;20029;-74
2022/03/16 10:40:15;;;;;;;3.70;2.90;;;;;;;26.57;9.40;102413.41;5053846;28;20036;-72
2022/03/16 10:48:14;;;;;;;11.45;5.70;;;;;;;26.64;9.25;102416.88;5053780;28;20074;-73
2022/03/16 10:50:41;;;;;;;12.57;5.25;;;;;;;26.71;9.01;102423.03;5053426;28;20140;-73
2022/03/16 10:53:06;;;;;;;7.63;4.05;;;;;;;26.70;8.97;102426.00;5055065;28;20458;-73
2022/03/16 10:55:32;;;;;;;7.95;4.47;;;;;;;26.71;9.11;102422.19;5076961;28;20085;-73
2022/03/16 10:57:57;;;;;;;10.50;5.30;;;;;;;26.74;9.16;102425.28;5058023;28;20037;-72
2022/03/16 11:00:22;;;;;;;8.43;4.72;;;;;;;26.76;9.29;102417.63;5057893;28;20082;-70
2022/03/16 11:02:48;;;;;;;9.18;4.65;;;;;;;26.59;9.02;102409.34;5058021;28;20029;-71
2022/03/16 11:05:18;;;;;;;4.93;3.67;;;;;;;26.71;9.00;102419.47;5074585;28;20089;-69
2022/03/16 11:07:45;;;;;;;5.25;3.42;;;;;;;26.71;9.17;102428.50;5074380;28;20108;-71
2022/03/16 11:10:10;;;;;;;5.30;2.90;;;;;;;26.73;9.43;102420.03;5075318;28;20017;-70
2022/03/16 11:15:20;;;;;;;5.25;2.80;;;;;;;26.73;9.39;102423.63;5060084;28;20057;-69
2022/03/16 11:17:46;;;;;;;3.38;2.40;;;;;;;26.72;9.36;102412.91;5074136;28;20052;-70
2022/03/16 11:20:11;;;;;;;3.50;2.60;;;;;;;26.76;9.38;102425.03;5075519;28;20072;-71
2022/03/16 11:26:04;;;;;;;3.08;2.40;;;;;;;26.75;9.23;102412.38;5076318;28;20530;-71
2022/03/16 11:28:51;;;;;;;2.20;2.00;;;;;;;26.60;9.24;102394.56;5074020;28;20028;-70
2022/03/16 11:31:18;;;;;;;5.43;2.35;;;;;;;26.71;9.52;102420.28;5018809;28;20358;-71
2022/03/16 11:33:50;;;;;;;2.33;2.13;;;;;;;26.66;9.55;102414.69;5016531;28;20058;-71
2022/03/16 11:36:31;;;;;;;2.35;2.08;;;;;;;26.76;9.23;102419.53;5032271;28;20033;-70
2022/03/16 11:39:02;;;;;;;2.35;2.15;;;;;;;26.72;9.05;102415.66;5032608;28;20340;-72
2022/03/16 11:41:32;;;;;;;2.88;2.13;;;;;;;26.79;9.10;102419.88;5032184;28;20030;-72